Flugplatz Achmer (EDXA)

Hier findest Du alle Informationen zum Flugplatz Achmer (EDXA).

Informationen für Piloten zum Flugplatz Achmer

Hier findest Du alle relevanten Informationen, die Du als Pilot benötigst, um Achmer anzufliegen.

Flugplatz: Achmer ICAO-Code: EDXA
Frequenz Turm: 123,050 Mhz GAFOR Gebiet: 9
Frequenz Ground: 123,050 Mhz Mogas: nein
Platzrunde: N 1000 ft Landegebühr: -
Platzhöhe: - Sunrise: 03:08 Uhr UTC
Pisten: 07/25 - 940 m x 30 m, GRAS Sunset: 19:44 Uhr UTC

Flugwetter am Flugplatz Achmer

Die METAR Information stammen aus EDDG (31.15 km entfernt).

METAR Code:
2020/06/01 07:20
EDDG 010720Z 03008KT 350V050 CAVOK 16/05 Q1024 NOSIG

Temperatur: 13,9 °C Niederschlag: - Wind: 1,7 kt (max.: 2,6 kt in Böen)
Temperatur (min.): 12,8 °C Luftdruck: 1022 hPa Windrichtung: 113 °
Temperatur (max.): 15,0 °C Luftfeuchtigkeit: 67 % Bewölkung: 8/8

Flugschulen am Flugplatz Achmer

Am Flugplatz Achmer gibt es leider keine Flugschule.

Benachbarte Flugplätze und Flugschulen

Es gibt 12 weitere Flugplätze in einem Umkreis von 50 km um den Flugplatz Achmer.

Jetzt anmelden

Passwort vergessen

Umfrage Archiv

Wären Rettungsgeräte keine Pflicht mehr, würdet Ihr Euer UL trotzdem mit einem ausstatten?

Ja
80.6 %
Nein
19.4 %
Stimmen: 124 | Diskussion
Anzeige: Roland Aircraft
Statistik Alle Mitglieder

Aktuell sind 48 Besucher online.

Anzeige: VFR Sprechfunk Simulator


Anzeige: Pocket FMS